Time;durP1;ratioP1;P1;durP2;ratioP2;P2;SDS_P1;SDS_P2;PMS_P1;PMS_P2;Temp;Humidity;BMP_temperature;BMP_pressure;BME280_temperature;BME280_humidity;BME280_pressure;Samples;Min_cycle;Max_cycle;Signal;HPM_P1;HPM_P2
2022/10/28 00:01:07;;;;;;;10.27;4.33;;;20.10;1.00;;;;;;5037154;28;20175;-85
2022/10/28 00:03:38;;;;;;;12.03;3.90;;;20.10;1.00;;;;;;5037741;28;20210;-80
2022/10/28 00:06:06;;;;;;;12.80;4.03;;;20.00;1.00;;;;;;5036868;28;20181;-80
2022/10/28 00:08:33;;;;;;;11.13;4.40;;;20.00;1.00;;;;;;5036067;28;20176;-82
2022/10/28 00:11:06;;;;;;;11.07;4.00;;;20.00;1.00;;;;;;5035594;28;20691;-80
2022/10/28 00:13:32;;;;;;;13.33;4.00;;;19.90;1.00;;;;;;5019789;28;20183;-80
2022/10/28 00:16:27;;;;;;;9.60;4.03;;;19.90;1.00;;;;;;5038571;28;20265;-80
2022/10/28 00:18:53;;;;;;;9.93;4.17;;;20.00;1.00;;;;;;5016194;28;20192;-80
2022/10/28 00:21:25;;;;;;;9.57;4.13;;;19.90;1.00;;;;;;4987492;28;20177;-80
2022/10/28 00:23:53;;;;;;;10.83;3.80;;;19.90;1.00;;;;;;5019143;28;20172;-79
2022/10/28 00:26:21;;;;;;;11.27;4.30;;;19.90;1.00;;;;;;4999505;28;20216;-79
2022/10/28 00:28:59;;;;;;;10.87;4.23;;;19.80;1.00;;;;;;5021264;28;20171;-84
2022/10/28 00:31:27;;;;;;;10.67;4.40;;;19.80;1.00;;;;;;5002077;28;20277;-84
2022/10/28 00:33:53;;;;;;;8.83;3.73;;;19.70;1.00;;;;;;5020394;28;20161;-79
2022/10/28 00:36:23;;;;;;;11.93;4.13;;;19.70;1.00;;;;;;5020326;28;20172;-80
2022/10/28 00:38:50;;;;;;;8.30;4.20;;;19.90;1.00;;;;;;5015066;28;20180;-81
2022/10/28 00:41:24;;;;;;;11.43;4.10;;;19.80;1.00;;;;;;5017316;28;20173;-81
2022/10/28 00:43:56;;;;;;;11.87;4.20;;;19.80;1.00;;;;;;4999158;28;20188;-80
2022/10/28 00:46:28;;;;;;;11.47;3.97;;;19.80;1.00;;;;;;5001353;28;20179;-84
2022/10/28 00:49:08;;;;;;;9.00;3.37;;;19.80;1.00;;;;;;5019241;28;20547;-85
2022/10/28 00:51:35;;;;;;;10.20;4.97;;;19.80;1.00;;;;;;5034751;28;20218;-83
2022/10/28 00:54:03;;;;;;;10.13;4.17;;;19.70;1.00;;;;;;5037556;28;20164;-82
2022/10/28 00:56:34;;;;;;;9.67;4.10;;;19.80;1.00;;;;;;5024248;28;20193;-80
2022/10/28 00:59:05;;;;;;;9.13;4.23;;;19.70;1.00;;;;;;5009858;28;20199;-81
2022/10/28 01:01:33;;;;;;;10.90;4.20;;;19.70;1.00;;;;;;5023860;28;20179;-84
2022/10/28 01:04:00;;;;;;;16.67;4.53;;;19.80;1.00;;;;;;5020170;28;20193;-81
2022/10/28 01:06:27;;;;;;;12.90;4.20;;;19.80;1.00;;;;;;5037887;28;20249;-82
2022/10/28 01:08:54;;;;;;;10.63;4.00;;;19.70;1.00;;;;;;5040095;28;20163;-81
2022/10/28 01:11:24;;;;;;;11.30;4.33;;;19.80;1.00;;;;;;5003567;28;20211;-80
2022/10/28 01:14:20;;;;;;;11.80;4.37;;;19.70;1.00;;;;;;5037190;28;20198;-84
2022/10/28 01:16:49;;;;;;;8.47;3.67;;;19.70;1.00;;;;;;5038856;28;20184;-82
2022/10/28 01:19:20;;;;;;;9.97;4.00;;;19.60;1.00;;;;;;5036615;28;20168;-80
2022/10/28 01:22:12;;;;;;;7.77;3.60;;;19.50;1.00;;;;;;5019759;28;20176;-79
2022/10/28 01:25:19;;;;;;;14.30;4.37;;;19.50;1.00;;;;;;5034692;28;20179;-81
2022/10/28 01:28:05;;;;;;;9.27;4.23;;;19.50;1.00;;;;;;5036022;28;20172;-83
2022/10/28 01:31:00;;;;;;;10.53;4.30;;;19.40;1.00;;;;;;5036267;28;22100;-81
2022/10/28 01:34:03;;;;;;;10.93;3.77;;;19.40;1.00;;;;;;5036012;28;20238;-80
2022/10/28 01:36:57;;;;;;;12.30;4.10;;;19.50;1.00;;;;;;4977845;28;20188;-78
2022/10/28 01:39:48;;;;;;;9.97;3.67;;;19.50;1.00;;;;;;5039619;28;20164;-82
2022/10/28 01:42:42;;;;;;;10.57;4.13;;;19.50;1.00;;;;;;5057336;28;20182;-84
2022/10/28 01:45:24;;;;;;;8.60;4.20;;;19.50;1.00;;;;;;5057138;28;20179;-78
2022/10/28 01:48:15;;;;;;;12.23;3.67;;;19.40;1.00;;;;;;5054588;28;20171;-78
2022/10/28 01:50:58;;;;;;;9.33;3.40;;;19.50;1.00;;;;;;5031201;28;20569;-80
2022/10/28 01:53:32;;;;;;;10.30;4.07;;;19.40;1.00;;;;;;5018998;28;20265;-80
2022/10/28 01:56:04;;;;;;;8.50;3.60;;;19.30;1.00;;;;;;5037011;28;20172;-80
2022/10/28 01:58:32;;;;;;;11.13;4.30;;;19.30;1.00;;;;;;5018972;28;20195;-80
2022/10/28 02:00:59;;;;;;;10.03;4.33;;;19.30;1.00;;;;;;5018938;28;20187;-80
2022/10/28 02:03:26;;;;;;;11.13;3.90;;;19.30;1.00;;;;;;5018570;28;20635;-86
2022/10/28 02:05:55;;;;;;;9.50;3.90;;;19.30;1.00;;;;;;5018923;28;20227;-81
2022/10/28 02:08:26;;;;;;;9.97;3.50;;;19.30;1.00;;;;;;5036523;28;20498;-80
2022/10/28 02:11:01;;;;;;;11.60;3.40;;;19.30;1.00;;;;;;5038242;28;20199;-80
2022/10/28 02:13:54;;;;;;;10.37;3.77;;;19.30;1.00;;;;;;5042861;28;20177;-79
2022/10/28 02:16:37;;;;;;;11.87;3.80;;;19.20;1.00;;;;;;5049871;28;20198;-81
2022/10/28 02:19:37;;;;;;;11.13;3.93;;;19.20;1.00;;;;;;5052927;28;20182;-79
2022/10/28 02:22:18;;;;;;;10.20;4.57;;;19.20;1.00;;;;;;5053577;28;20206;-80
2022/10/28 02:24:50;;;;;;;13.00;4.10;;;19.20;1.00;;;;;;5039309;28;20180;-80
2022/10/28 02:27:39;;;;;;;13.60;3.93;;;19.20;1.00;;;;;;5039602;28;20199;-79
2022/10/28 02:30:10;;;;;;;10.80;4.00;;;19.20;1.00;;;;;;5038818;28;20170;-79
2022/10/28 02:32:43;;;;;;;11.40;3.67;;;19.20;1.00;;;;;;5038973;28;20203;-77
2022/10/28 02:35:19;;;;;;;8.80;3.53;;;19.10;1.00;;;;;;5038241;28;20186;-78
2022/10/28 02:37:49;;;;;;;9.93;3.53;;;19.20;1.00;;;;;;5037536;28;20179;-79
2022/10/28 02:40:21;;;;;;;10.70;4.00;;;19.10;1.00;;;;;;5038481;28;20179;-80
2022/10/28 02:42:51;;;;;;;9.53;3.97;;;19.20;1.00;;;;;;5037062;28;20632;-80
2022/10/28 02:45:46;;;;;;;8.80;3.97;;;19.10;1.00;;;;;;5038444;28;20174;-79
2022/10/28 02:48:18;;;;;;;11.73;3.83;;;19.10;1.00;;;;;;5036472;28;20195;-80
2022/10/28 02:51:02;;;;;;;11.00;3.97;;;19.10;1.00;;;;;;5018722;28;20276;-79
2022/10/28 02:53:40;;;;;;;10.77;4.13;;;19.10;1.00;;;;;;5039488;28;20179;-79
2022/10/28 02:56:08;;;;;;;12.27;4.47;;;19.00;1.00;;;;;;5038875;28;20174;-79
2022/10/28 02:58:39;;;;;;;9.83;4.10;;;19.00;1.00;;;;;;5038997;28;20273;-80
2022/10/28 03:01:06;;;;;;;12.83;4.90;;;19.00;1.00;;;;;;5038612;28;20166;-79
2022/10/28 03:03:31;;;;;;;11.07;4.47;;;19.00;1.00;;;;;;5020933;28;20174;-80
2022/10/28 03:05:57;;;;;;;13.03;4.10;;;19.10;1.00;;;;;;5037810;28;20175;-80
2022/10/28 03:08:24;;;;;;;6.60;3.90;;;18.90;1.00;;;;;;5039201;28;20170;-79
2022/10/28 03:10:50;;;;;;;14.10;4.30;;;18.90;1.00;;;;;;5038815;28;20198;-79
2022/10/28 03:13:16;;;;;;;11.17;4.10;;;18.90;1.00;;;;;;5021041;28;20189;-79
2022/10/28 03:15:41;;;;;;;10.40;4.27;;;18.90;1.00;;;;;;5038976;28;20167;-78
2022/10/28 03:18:07;;;;;;;12.63;4.20;;;18.90;1.00;;;;;;5038710;28;20178;-80
2022/10/28 03:20:33;;;;;;;9.80;4.17;;;18.90;1.00;;;;;;5035657;28;20666;-80
2022/10/28 03:22:59;;;;;;;15.23;4.23;;;18.90;1.00;;;;;;5034844;28;20179;-81
2022/10/28 03:25:25;;;;;;;10.43;4.70;;;19.00;1.00;;;;;;5035458;28;20619;-79
2022/10/28 03:27:51;;;;;;;11.47;3.90;;;18.90;1.00;;;;;;5017746;28;20226;-79
2022/10/28 03:30:17;;;;;;;12.00;3.80;;;19.00;1.00;;;;;;5018143;28;20172;-79
2022/10/28 03:32:43;;;;;;;10.03;3.57;;;19.00;1.00;;;;;;5036190;28;20171;-80
2022/10/28 03:35:10;;;;;;;8.70;3.97;;;19.10;1.00;;;;;;5035884;28;20241;-79
2022/10/28 03:37:41;;;;;;;12.17;4.13;;;19.10;1.00;;;;;;5036062;28;20165;-78
2022/10/28 03:40:07;;;;;;;14.67;4.23;;;19.10;1.00;;;;;;5018693;28;20545;-80
2022/10/28 03:42:34;;;;;;;9.63;4.10;;;19.00;1.00;;;;;;5035429;28;20167;-81
2022/10/28 03:45:01;;;;;;;10.97;4.00;;;19.00;1.00;;;;;;5035158;28;20641;-80
2022/10/28 03:47:27;;;;;;;11.80;4.37;;;19.00;1.00;;;;;;5017081;28;20217;-79
2022/10/28 03:49:53;;;;;;;12.03;4.37;;;19.00;1.00;;;;;;5034720;28;20159;-81
2022/10/28 03:52:18;;;;;;;14.47;4.70;;;18.90;1.00;;;;;;5035046;28;20199;-81
2022/10/28 03:54:44;;;;;;;13.97;4.03;;;18.90;1.00;;;;;;5034777;28;20627;-81
2022/10/28 03:57:09;;;;;;;11.50;4.20;;;18.90;1.00;;;;;;5034500;28;20199;-81
2022/10/28 03:59:35;;;;;;;15.27;4.17;;;18.90;1.00;;;;;;5034612;28;20635;-80
2022/10/28 04:02:01;;;;;;;13.27;4.53;;;19.00;1.00;;;;;;5016809;28;20182;-81
2022/10/28 04:04:26;;;;;;;10.33;3.97;;;19.00;1.00;;;;;;5034537;28;20520;-80
2022/10/28 04:06:52;;;;;;;13.33;3.83;;;19.00;1.00;;;;;;5033750;28;20177;-81
2022/10/28 04:09:18;;;;;;;8.03;3.73;;;19.00;1.00;;;;;;5015271;28;20180;-81
2022/10/28 04:11:51;;;;;;;11.20;4.27;;;19.00;1.00;;;;;;5033829;28;20701;-81
2022/10/28 04:14:17;;;;;;;9.93;4.70;;;18.90;1.00;;;;;;5016388;28;20539;-81
2022/10/28 04:16:44;;;;;;;12.80;4.70;;;19.00;1.00;;;;;;5033874;28;20172;-81
2022/10/28 04:19:12;;;;;;;13.47;4.20;;;19.00;1.00;;;;;;5033941;28;20175;-80
2022/10/28 04:21:38;;;;;;;9.10;4.13;;;19.00;1.00;;;;;;5016210;28;20205;-80
2022/10/28 04:24:04;;;;;;;12.03;3.93;;;18.90;1.00;;;;;;5033869;28;20626;-80
2022/10/28 04:26:30;;;;;;;11.13;4.73;;;19.00;1.00;;;;;;5033721;28;20167;-82
2022/10/28 04:28:56;;;;;;;11.00;4.17;;;19.00;1.00;;;;;;5033473;28;20170;-80
2022/10/28 04:31:22;;;;;;;9.90;4.17;;;19.00;1.00;;;;;;5033630;28;20207;-79
2022/10/28 04:33:47;;;;;;;11.30;4.30;;;19.00;1.00;;;;;;5033794;28;20185;-86
2022/10/28 04:36:13;;;;;;;13.20;4.43;;;19.00;1.00;;;;;;5016368;28;20175;-80
2022/10/28 04:38:38;;;;;;;11.10;4.30;;;19.00;1.00;;;;;;5015639;28;20178;-84
2022/10/28 04:41:04;;;;;;;8.93;4.00;;;19.00;1.00;;;;;;5033816;28;20611;-84
2022/10/28 04:43:30;;;;;;;10.37;4.13;;;19.00;1.00;;;;;;5033773;28;20165;-84
2022/10/28 04:45:55;;;;;;;12.93;4.43;;;19.00;1.00;;;;;;5016727;28;20380;-85
2022/10/28 04:48:21;;;;;;;14.40;4.80;;;19.00;1.00;;;;;;5034211;28;20689;-82
2022/10/28 04:50:47;;;;;;;9.50;4.10;;;19.00;1.00;;;;;;5015768;28;20559;-83
2022/10/28 04:53:12;;;;;;;10.10;4.57;;;19.10;1.00;;;;;;5034219;28;20660;-83
2022/10/28 04:55:38;;;;;;;12.67;4.20;;;19.10;1.00;;;;;;5034979;28;20237;-79
2022/10/28 04:58:04;;;;;;;11.10;4.17;;;19.10;1.00;;;;;;5017591;28;20679;-82
2022/10/28 05:00:30;;;;;;;18.70;4.43;;;19.00;1.00;;;;;;5034600;28;20156;-79
2022/10/28 05:02:56;;;;;;;10.97;4.40;;;19.00;1.00;;;;;;5016246;28;20201;-80
2022/10/28 05:05:22;;;;;;;12.40;4.57;;;19.00;1.00;;;;;;5033702;28;20237;-80
2022/10/28 05:07:47;;;;;;;10.93;4.60;;;18.90;1.00;;;;;;5034237;28;20170;-86
2022/10/28 05:10:14;;;;;;;16.07;4.77;;;18.90;1.00;;;;;;5034206;28;20680;-82
2022/10/28 05:12:44;;;;;;;12.77;4.83;;;18.80;1.00;;;;;;5050483;28;20195;-84
2022/10/28 05:15:11;;;;;;;10.47;4.63;;;18.80;1.00;;;;;;5056045;28;20180;-86
2022/10/28 05:17:44;;;;;;;12.80;4.83;;;18.90;1.00;;;;;;5057532;28;20183;-79
2022/10/28 05:20:14;;;;;;;12.30;4.83;;;18.80;1.00;;;;;;5056602;28;20179;-80
2022/10/28 05:22:51;;;;;;;12.70;4.57;;;18.80;1.00;;;;;;5055617;28;20246;-80
2022/10/28 05:25:17;;;;;;;11.90;4.70;;;18.70;1.00;;;;;;5041296;28;20158;-82
2022/10/28 05:28:01;;;;;;;12.47;4.90;;;18.70;1.00;;;;;;5044066;28;20156;-82
2022/10/28 05:30:31;;;;;;;12.67;4.70;;;18.70;1.00;;;;;;5021987;28;20166;-81
2022/10/28 05:33:01;;;;;;;13.73;5.03;;;18.70;1.00;;;;;;5040817;28;20694;-83
2022/10/28 05:35:30;;;;;;;13.93;5.43;;;18.70;1.00;;;;;;5048439;28;20210;-83
2022/10/28 05:37:56;;;;;;;14.53;4.70;;;18.80;1.00;;;;;;5044939;28;20275;-81
2022/10/28 05:40:23;;;;;;;11.63;4.27;;;18.70;1.00;;;;;;5041823;28;20170;-80
2022/10/28 05:42:49;;;;;;;13.77;4.77;;;18.70;1.00;;;;;;5040454;28;20610;-82
2022/10/28 05:45:15;;;;;;;9.30;4.53;;;18.70;1.00;;;;;;5021391;28;20184;-84
2022/10/28 05:47:45;;;;;;;10.10;4.03;;;18.60;1.00;;;;;;5039081;28;20244;-79
2022/10/28 05:50:12;;;;;;;12.47;5.10;;;18.60;1.30;;;;;;5044188;28;20685;-79
2022/10/28 05:52:38;;;;;;;9.13;4.53;;;18.60;2.10;;;;;;5059592;28;20265;-82
2022/10/28 05:55:08;;;;;;;14.43;4.60;;;18.70;1.00;;;;;;5059910;28;20200;-88
2022/10/28 05:57:35;;;;;;;11.73;4.67;;;18.60;1.60;;;;;;5060917;28;20187;-83
2022/10/28 06:00:05;;;;;;;11.10;4.37;;;18.60;1.80;;;;;;5054026;28;20213;-85
2022/10/28 06:02:31;;;;;;;13.90;4.80;;;18.60;2.40;;;;;;5050433;28;20229;-82
2022/10/28 06:05:00;;;;;;;13.27;4.50;;;18.60;2.80;;;;;;5044898;28;20184;-83
2022/10/28 06:07:55;;;;;;;11.07;4.80;;;18.60;1.00;;;;;;5037746;28;20207;-81
2022/10/28 06:10:22;;;;;;;15.23;4.57;;;18.60;1.00;;;;;;5036730;28;20470;-83
2022/10/28 06:12:48;;;;;;;16.37;4.93;;;18.60;1.90;;;;;;5035940;28;20364;-81
2022/10/28 06:15:13;;;;;;;11.03;5.37;;;18.60;1.80;;;;;;5038797;28;20160;-83
2022/10/28 06:17:39;;;;;;;18.90;5.60;;;18.60;2.20;;;;;;5035635;28;20219;-80
2022/10/28 06:20:05;;;;;;;14.67;4.93;;;18.60;3.70;;;;;;5036419;28;20256;-79
2022/10/28 06:22:31;;;;;;;16.13;4.83;;;18.60;3.70;;;;;;5020288;28;20190;-81
2022/10/28 06:24:58;;;;;;;12.77;5.27;;;18.60;2.20;;;;;;5039625;28;20273;-81
2022/10/28 06:27:23;;;;;;;15.20;5.40;;;18.60;3.20;;;;;;5038719;28;20647;-80
2022/10/28 06:29:49;;;;;;;10.87;5.37;;;18.60;3.00;;;;;;5020073;28;20178;-80
2022/10/28 06:32:15;;;;;;;11.47;4.77;;;18.50;6.10;;;;;;5019545;28;20627;-82
2022/10/28 06:34:40;;;;;;;13.13;4.90;;;18.50;8.10;;;;;;5020823;28;20600;-81
2022/10/28 06:37:06;;;;;;;16.70;5.77;;;18.50;7.20;;;;;;5035221;28;20632;-78
2022/10/28 06:39:32;;;;;;;10.27;4.70;;;18.50;8.10;;;;;;5017938;28;20182;-77
2022/10/28 06:41:58;;;;;;;13.47;5.70;;;18.60;8.60;;;;;;5022138;28;20179;-78
2022/10/28 06:44:27;;;;;;;11.07;4.93;;;18.50;9.40;;;;;;5042137;28;20226;-79
2022/10/28 06:46:53;;;;;;;13.20;5.43;;;18.50;9.20;;;;;;5036795;28;20171;-80
2022/10/28 06:49:20;;;;;;;11.80;5.00;;;18.50;9.90;;;;;;5026738;28;20194;-82
2022/10/28 06:51:46;;;;;;;13.90;5.47;;;18.50;9.00;;;;;;5006680;28;20225;-82
2022/10/28 06:54:16;;;;;;;13.17;4.80;;;18.50;9.30;;;;;;5024280;28;20167;-79
2022/10/28 06:56:46;;;;;;;15.17;4.60;;;18.60;7.80;;;;;;5025902;28;20220;-79
2022/10/28 06:59:11;;;;;;;10.57;4.90;;;18.50;9.20;;;;;;5044734;28;20201;-80
2022/10/28 07:01:37;;;;;;;14.90;5.33;;;18.60;9.20;;;;;;5035558;28;20634;-79
2022/10/28 07:04:03;;;;;;;12.20;5.17;;;18.60;8.60;;;;;;5035207;28;20158;-80
2022/10/28 07:06:29;;;;;;;13.37;5.23;;;18.60;8.30;;;;;;5034964;28;20334;-81
2022/10/28 07:08:54;;;;;;;12.73;5.13;;;18.60;8.50;;;;;;5034765;28;20170;-81
2022/10/28 07:11:20;;;;;;;17.80;6.20;;;18.70;9.00;;;;;;5034417;28;20280;-81
2022/10/28 07:13:46;;;;;;;14.43;4.97;;;18.70;8.70;;;;;;5034685;28;20645;-83
2022/10/28 07:16:12;;;;;;;12.43;5.63;;;18.70;8.20;;;;;;5016583;28;20659;-82
2022/10/28 07:18:38;;;;;;;13.97;5.07;;;18.70;7.60;;;;;;5034254;28;20186;-81
2022/10/28 07:21:04;;;;;;;13.30;5.60;;;18.70;7.50;;;;;;5034837;28;20168;-81
2022/10/28 07:23:33;;;;;;;13.20;5.57;;;18.70;7.20;;;;;;5034478;28;20194;-82
2022/10/28 07:25:59;;;;;;;12.70;5.70;;;18.80;8.20;;;;;;5034047;28;20252;-81
2022/10/28 07:28:26;;;;;;;24.53;5.37;;;18.80;7.90;;;;;;5034382;28;20167;-83
2022/10/28 07:30:52;;;;;;;15.97;5.77;;;18.80;6.00;;;;;;5033826;28;20628;-83
2022/10/28 07:33:19;;;;;;;17.93;6.00;;;18.90;6.00;;;;;;5034116;28;20178;-81
2022/10/28 07:35:45;;;;;;;16.93;6.33;;;19.00;4.10;;;;;;5034185;28;20182;-80
2022/10/28 07:38:11;;;;;;;15.07;5.50;;;19.00;2.80;;;;;;5034857;28;20197;-79
2022/10/28 07:40:36;;;;;;;13.60;5.60;;;19.20;1.00;;;;;;5033472;28;20265;-81
2022/10/28 07:43:02;;;;;;;13.53;6.00;;;19.20;1.00;;;;;;5034379;28;20164;-80
2022/10/28 07:45:28;;;;;;;16.57;5.60;;;19.20;1.00;;;;;;5031605;28;20607;-80
2022/10/28 07:47:53;;;;;;;16.23;5.73;;;19.20;1.00;;;;;;5032750;28;20659;-81
2022/10/28 07:50:19;;;;;;;17.83;5.63;;;19.30;1.00;;;;;;5033872;28;20267;-80
2022/10/28 07:52:47;;;;;;;12.47;5.07;;;19.30;1.00;;;;;;5033773;28;20666;-80
2022/10/28 07:55:13;;;;;;;16.47;5.87;;;19.40;1.00;;;;;;5033420;28;20166;-81
2022/10/28 07:57:38;;;;;;;15.77;5.63;;;19.40;1.00;;;;;;5015968;28;20221;-81
2022/10/28 08:00:05;;;;;;;16.10;6.13;;;19.60;1.00;;;;;;5033572;28;20199;-81
2022/10/28 08:02:31;;;;;;;17.40;5.53;;;19.60;1.00;;;;;;5033711;28;20619;-81
2022/10/28 08:04:58;;;;;;;16.13;5.43;;;19.70;1.00;;;;;;5034147;28;20253;-81
2022/10/28 08:07:24;;;;;;;13.90;6.27;;;19.80;1.00;;;;;;5015938;28;20175;-78
2022/10/28 08:09:51;;;;;;;18.70;8.57;;;19.80;1.00;;;;;;5032956;28;20239;-82
2022/10/28 08:12:17;;;;;;;17.00;7.00;;;19.80;1.00;;;;;;5033427;28;20207;-81
2022/10/28 08:14:42;;;;;;;18.80;5.97;;;19.80;1.00;;;;;;5033760;28;20240;-87
2022/10/28 08:17:08;;;;;;;14.60;6.23;;;19.90;1.00;;;;;;5034062;28;20171;-82
2022/10/28 08:19:34;;;;;;;15.30;5.67;;;20.00;1.00;;;;;;5033535;28;20179;-83
2022/10/28 08:22:01;;;;;;;13.23;6.03;;;20.00;1.00;;;;;;5034024;28;20180;-84
2022/10/28 08:24:26;;;;;;;13.10;4.70;;;20.00;1.00;;;;;;5034272;28;20178;-82
2022/10/28 08:26:52;;;;;;;15.77;5.40;;;20.00;1.00;;;;;;5034911;28;20187;-83
2022/10/28 08:29:18;;;;;;;14.77;5.10;;;20.00;1.00;;;;;;5035864;28;20523;-82
2022/10/28 08:31:43;;;;;;;11.83;5.27;;;20.00;1.00;;;;;;5034360;28;20227;-81
2022/10/28 08:34:09;;;;;;;15.57;5.20;;;20.20;1.00;;;;;;5031766;28;20663;-83
2022/10/28 08:36:35;;;;;;;11.67;5.80;;;20.10;1.00;;;;;;5033776;28;20620;-84
2022/10/28 08:39:02;;;;;;;13.43;4.83;;;20.20;1.00;;;;;;5035978;28;20199;-80
2022/10/28 08:41:45;;;;;;;16.00;5.53;;;20.20;1.00;;;;;;5035251;28;20180;-85
2022/10/28 08:44:47;;;;;;;11.23;5.07;;;20.20;1.00;;;;;;5041810;28;20180;-81
2022/10/28 08:47:16;;;;;;;16.40;6.37;;;20.10;1.00;;;;;;5031910;28;20175;-83
2022/10/28 08:49:46;;;;;;;15.47;5.80;;;20.20;1.00;;;;;;5055077;28;20256;-81
2022/10/28 08:52:23;;;;;;;25.10;6.30;;;20.20;1.00;;;;;;5037263;28;20224;-84
2022/10/28 08:55:11;;;;;;;31.53;7.53;;;20.20;1.00;;;;;;5040577;28;20596;-81
2022/10/28 08:58:04;;;;;;;22.77;6.27;;;20.30;1.00;;;;;;5024199;28;20208;-85
2022/10/28 09:00:33;;;;;;;18.07;6.00;;;20.40;1.00;;;;;;5024906;28;20178;-87
2022/10/28 09:03:11;;;;;;;13.00;5.00;;;20.50;1.00;;;;;;5025420;28;20170;-85
2022/10/28 09:05:39;;;;;;;14.13;5.23;;;20.60;1.00;;;;;;5030493;28;20175;-84
2022/10/28 09:08:28;;;;;;;14.30;5.37;;;20.70;1.00;;;;;;5026540;28;20552;-87
2022/10/28 09:11:00;;;;;;;16.63;5.00;;;20.70;1.00;;;;;;5027615;28;20206;-86
2022/10/28 09:13:32;;;;;;;14.47;5.60;;;20.80;1.00;;;;;;5029824;28;20149;-83
2022/10/28 09:16:18;;;;;;;11.80;5.00;;;20.90;1.00;;;;;;5048006;28;20168;-86
2022/10/28 09:18:56;;;;;;;13.13;5.57;;;21.10;1.00;;;;;;5038910;28;20169;-88
2022/10/28 09:21:56;;;;;;;18.37;5.17;;;21.10;1.00;;;;;;5036405;28;20177;-86
2022/10/28 09:24:47;;;;;;;15.70;5.10;;;21.20;1.00;;;;;;5043975;28;20236;-83
2022/10/28 09:27:52;;;;;;;15.83;5.03;;;21.40;1.00;;;;;;5046773;28;20181;-82
2022/10/28 09:30:38;;;;;;;14.20;5.80;;;21.50;1.00;;;;;;5052682;28;20173;-79
2022/10/28 09:33:34;;;;;;;20.20;5.17;;;21.70;1.00;;;;;;5053332;28;20183;-80
2022/10/28 09:36:03;;;;;;;9.83;4.70;;;21.80;1.00;;;;;;5046252;28;20689;-80
2022/10/28 09:38:38;;;;;;;11.20;4.37;;;21.80;1.00;;;;;;5045759;28;20185;-80
2022/10/28 09:41:27;;;;;;;15.10;5.10;;;21.80;1.00;;;;;;5049936;28;20158;-83
2022/10/28 09:44:11;;;;;;;12.70;4.57;;;21.80;1.00;;;;;;5040510;28;20175;-80
2022/10/28 09:46:38;;;;;;;14.83;5.03;;;21.90;1.00;;;;;;5040554;28;20167;-82
2022/10/28 09:49:11;;;;;;;15.80;5.30;;;22.00;1.00;;;;;;5043073;28;20160;-84
2022/10/28 09:51:36;;;;;;;14.30;5.13;;;22.10;1.00;;;;;;5040541;28;20206;-81
2022/10/28 09:54:13;;;;;;;9.37;4.60;;;22.20;1.00;;;;;;5042737;28;20172;-85
2022/10/28 09:56:42;;;;;;;14.03;4.60;;;22.40;1.00;;;;;;5044343;28;20233;-80
2022/10/28 09:59:13;;;;;;;12.63;5.00;;;22.50;1.00;;;;;;5048179;28;20150;-82
2022/10/28 10:01:41;;;;;;;14.83;5.17;;;22.60;1.00;;;;;;5045511;28;20524;-80
2022/10/28 10:04:39;;;;;;;11.97;5.50;;;22.80;1.00;;;;;;5009841;28;20561;-82
2022/10/28 10:07:13;;;;;;;16.20;5.10;;;23.00;1.00;;;;;;5045913;28;20175;-81
2022/10/28 10:09:43;;;;;;;16.47;5.30;;;23.20;1.00;;;;;;5049770;28;20143;-81
2022/10/28 10:12:17;;;;;;;13.60;5.90;;;23.20;1.00;;;;;;5052179;28;20555;-86
2022/10/28 10:15:01;;;;;;;16.97;5.10;;;23.40;1.00;;;;;;5040586;28;20183;-85
2022/10/28 10:17:40;;;;;;;15.60;4.73;;;23.30;1.00;;;;;;5059263;28;20148;-80
2022/10/28 10:20:25;;;;;;;13.43;4.53;;;23.20;1.00;;;;;;5044889;28;20199;-85
2022/10/28 10:23:25;;;;;;;14.27;4.63;;;23.10;1.00;;;;;;5053666;28;20237;-83
2022/10/28 10:26:17;;;;;;;17.67;4.50;;;23.00;1.00;;;;;;5048019;28;20263;-80
2022/10/28 10:28:50;;;;;;;16.20;4.50;;;23.00;1.00;;;;;;5051407;28;20171;-82
2022/10/28 10:31:28;;;;;;;11.40;4.37;;;23.10;1.00;;;;;;5057922;28;20206;-86
2022/10/28 10:33:56;;;;;;;13.23;4.50;;;23.20;1.00;;;;;;5048382;28;20172;-84
2022/10/28 10:36:27;;;;;;;14.90;4.63;;;23.40;1.00;;;;;;5044322;28;20247;-81
2022/10/28 10:38:56;;;;;;;15.07;4.40;;;23.40;1.00;;;;;;5048371;28;20156;-82
2022/10/28 10:41:47;;;;;;;14.90;4.37;;;23.20;1.00;;;;;;5044870;28;20183;-80
2022/10/28 10:44:34;;;;;;;11.03;4.00;;;23.10;1.00;;;;;;5046831;28;20172;-81
2022/10/28 10:47:03;;;;;;;14.50;4.50;;;23.10;1.00;;;;;;5044589;28;20320;-80
2022/10/28 10:49:33;;;;;;;12.73;4.30;;;23.20;1.00;;;;;;5043689;28;20195;-79
2022/10/28 10:52:14;;;;;;;14.10;4.67;;;23.20;1.00;;;;;;5009112;28;20230;-80
2022/10/28 10:54:56;;;;;;;11.90;3.90;;;23.30;1.00;;;;;;5008209;28;20167;-82
2022/10/28 10:57:27;;;;;;;11.80;4.13;;;23.40;1.00;;;;;;5011092;28;20209;-79
2022/10/28 10:59:56;;;;;;;16.33;4.93;;;23.50;1.00;;;;;;5025702;28;20189;-82
2022/10/28 11:02:38;;;;;;;15.73;4.50;;;23.70;1.00;;;;;;5011405;28;20177;-79
2022/10/28 11:05:08;;;;;;;15.13;4.67;;;23.60;1.00;;;;;;5011692;28;20178;-81
2022/10/28 11:07:39;;;;;;;13.87;4.67;;;23.70;1.00;;;;;;5011820;28;20169;-82
2022/10/28 11:10:17;;;;;;;14.00;5.00;;;23.50;1.00;;;;;;5027649;28;20621;-82
2022/10/28 11:12:54;;;;;;;12.73;4.83;;;23.50;1.00;;;;;;5012053;28;20212;-81
2022/10/28 11:15:25;;;;;;;12.80;4.40;;;23.50;1.00;;;;;;5011583;28;20173;-80
2022/10/28 11:18:15;;;;;;;13.10;3.77;;;23.60;1.00;;;;;;5011068;28;20196;-81
2022/10/28 11:20:45;;;;;;;16.57;4.53;;;23.50;1.00;;;;;;5036077;28;20660;-82
2022/10/28 11:23:45;;;;;;;14.73;4.33;;;23.30;1.00;;;;;;5033351;28;20261;-81
2022/10/28 11:26:14;;;;;;;12.20;4.03;;;23.40;1.00;;;;;;5032595;28;20316;-81
2022/10/28 11:29:02;;;;;;;12.70;4.10;;;23.30;1.00;;;;;;5028762;28;20229;-81
2022/10/28 11:31:50;;;;;;;12.20;4.47;;;23.40;1.00;;;;;;5023291;28;20602;-82
2022/10/28 11:34:40;;;;;;;15.50;4.67;;;23.40;1.00;;;;;;5026461;28;20198;-84
2022/10/28 11:37:29;;;;;;;9.73;4.03;;;23.40;1.00;;;;;;5041844;28;20226;-82
2022/10/28 11:40:32;;;;;;;15.23;4.67;;;23.50;1.00;;;;;;5025916;28;20535;-82
2022/10/28 11:43:26;;;;;;;13.63;4.20;;;23.60;1.00;;;;;;5024164;28;20187;-82
2022/10/28 11:46:14;;;;;;;11.27;3.70;;;23.50;1.00;;;;;;5023845;28;20551;-82
2022/10/28 11:49:10;;;;;;;13.63;4.20;;;23.50;1.00;;;;;;5040179;28;20198;-84
2022/10/28 11:52:04;;;;;;;18.53;4.57;;;23.70;1.00;;;;;;5020372;28;20208;-81
2022/10/28 11:54:48;;;;;;;11.70;4.40;;;23.60;1.00;;;;;;5027302;28;20267;-80
2022/10/28 11:57:36;;;;;;;17.73;4.30;;;23.50;1.00;;;;;;5026604;28;20195;-81
2022/10/28 12:00:02;;;;;;;19.53;5.10;;;23.50;1.00;;;;;;5024882;28;20174;-82
2022/10/28 12:02:43;;;;;;;13.10;4.23;;;23.50;1.00;;;;;;5027675;28;20190;-83
2022/10/28 12:05:40;;;;;;;13.20;4.20;;;23.30;1.00;;;;;;5036381;28;20181;-83
2022/10/28 12:08:14;;;;;;;12.67;4.60;;;23.20;1.00;;;;;;5025062;28;20189;-87
2022/10/28 12:11:07;;;;;;;14.40;4.40;;;23.10;1.00;;;;;;5026495;28;20167;-88
2022/10/28 12:13:38;;;;;;;14.73;5.07;;;23.10;1.00;;;;;;5046378;28;20178;-86
2022/10/28 12:16:37;;;;;;;13.80;4.47;;;23.10;1.00;;;;;;5037625;28;20170;-85
2022/10/28 12:19:21;;;;;;;13.17;4.13;;;23.20;1.00;;;;;;5046642;28;20167;-85
2022/10/28 12:21:54;;;;;;;9.10;4.00;;;23.10;1.00;;;;;;5010219;28;20187;-84
2022/10/28 12:24:24;;;;;;;14.87;4.57;;;23.20;1.00;;;;;;5022200;28;20214;-83
2022/10/28 12:26:56;;;;;;;13.57;3.73;;;23.20;1.00;;;;;;4989114;28;20237;-87
2022/10/28 12:29:29;;;;;;;14.00;4.30;;;23.10;1.00;;;;;;5023574;28;20528;-88
2022/10/28 12:32:29;;;;;;;9.63;4.10;;;23.10;1.00;;;;;;5023952;28;20247;-86
2022/10/28 12:35:27;;;;;;;11.17;4.23;;;23.10;1.00;;;;;;5024036;28;20206;-88
2022/10/28 12:38:17;;;;;;;11.87;4.57;;;23.00;1.00;;;;;;4996254;28;20543;-88
2022/10/28 12:41:14;;;;;;;11.13;4.77;;;23.20;1.00;;;;;;5007286;28;20176;-89
2022/10/28 12:43:52;;;;;;;12.50;4.33;;;23.20;1.00;;;;;;5007679;28;20190;-87
2022/10/28 12:46:37;;;;;;;13.13;4.00;;;23.40;1.00;;;;;;5035236;28;20295;-88
2022/10/28 12:49:15;;;;;;;13.97;4.63;;;23.30;1.00;;;;;;5046868;28;20190;-83
2022/10/28 12:51:42;;;;;;;13.33;3.93;;;23.40;1.00;;;;;;5044141;28;20300;-89
2022/10/28 12:54:10;;;;;;;12.57;3.93;;;23.40;1.00;;;;;;5027979;28;20168;-86
2022/10/28 12:56:54;;;;;;;12.43;4.63;;;23.50;1.00;;;;;;5044858;28;20157;-88
2022/10/28 12:59:36;;;;;;;17.30;4.50;;;23.60;1.00;;;;;;5008324;28;20177;-81
2022/10/28 13:02:08;;;;;;;11.37;4.67;;;23.60;1.00;;;;;;5042896;28;20157;-86
2022/10/28 13:04:36;;;;;;;9.47;3.30;;;23.50;1.00;;;;;;5023525;28;20207;-82
2022/10/28 13:07:08;;;;;;;13.00;4.57;;;23.50;1.00;;;;;;5029389;28;20173;-83
2022/10/28 13:09:55;;;;;;;15.30;4.37;;;23.70;1.00;;;;;;5055052;28;20160;-88
2022/10/28 13:13:12;;;;;;;13.30;4.67;;;23.70;1.00;;;;;;5030404;28;20263;-81
2022/10/28 13:15:47;;;;;;;11.23;3.90;;;23.80;1.00;;;;;;5054699;28;20152;-83
2022/10/28 13:18:54;;;;;;;14.60;4.27;;;23.80;1.00;;;;;;5030783;28;20183;-89
2022/10/28 13:21:53;;;;;;;12.73;4.47;;;23.70;1.00;;;;;;5049647;28;20179;-89